sensor_id;sensor_type;location;lat;lon;timestamp;P1;durP1;ratioP1;P2;durP2;ratioP2
52450;SDS011;38366;53.176;6.540;2022-09-12T00:01:51;11.00;;;9.90;;
52450;SDS011;38366;53.176;6.540;2022-09-12T00:04:16;12.52;;;10.50;;
52450;SDS011;38366;53.176;6.540;2022-09-12T00:06:42;17.73;;;10.13;;
52450;SDS011;38366;53.176;6.540;2022-09-12T00:09:09;11.52;;;10.25;;
52450;SDS011;38366;53.176;6.540;2022-09-12T00:11:37;12.18;;;10.98;;
52450;SDS011;38366;53.176;6.540;2022-09-12T00:14:04;12.80;;;10.63;;
52450;SDS011;38366;53.176;6.540;2022-09-12T00:16:32;12.55;;;11.10;;
52450;SDS011;38366;53.176;6.540;2022-09-12T00:18:59;14.25;;;10.55;;
52450;SDS011;38366;53.176;6.540;2022-09-12T00:23:51;12.18;;;10.00;;
52450;SDS011;38366;53.176;6.540;2022-09-12T00:26:18;11.95;;;10.77;;
52450;SDS011;38366;53.176;6.540;2022-09-12T00:28:45;12.35;;;10.82;;
52450;SDS011;38366;53.176;6.540;2022-09-12T00:33:38;14.48;;;12.40;;
52450;SDS011;38366;53.176;6.540;2022-09-12T00:36:05;12.80;;;10.93;;
52450;SDS011;38366;53.176;6.540;2022-09-12T00:38:33;13.18;;;11.40;;
52450;SDS011;38366;53.176;6.540;2022-09-12T00:41:03;12.02;;;10.80;;
52450;SDS011;38366;53.176;6.540;2022-09-12T00:45:55;13.10;;;11.70;;
52450;SDS011;38366;53.176;6.540;2022-09-12T00:48:25;15.00;;;12.40;;
52450;SDS011;38366;53.176;6.540;2022-09-12T00:50:56;14.50;;;13.00;;
52450;SDS011;38366;53.176;6.540;2022-09-12T00:55:48;14.07;;;12.60;;
52450;SDS011;38366;53.176;6.540;2022-09-12T00:58:30;13.88;;;12.48;;
52450;SDS011;38366;53.176;6.540;2022-09-12T01:01:13;14.35;;;12.85;;
52450;SDS011;38366;53.176;6.540;2022-09-12T01:03:39;14.25;;;12.85;;
52450;SDS011;38366;53.176;6.540;2022-09-12T01:06:07;15.70;;;13.18;;
52450;SDS011;38366;53.176;6.540;2022-09-12T01:08:39;14.73;;;13.32;;
52450;SDS011;38366;53.176;6.540;2022-09-12T01:11:08;15.20;;;13.63;;
52450;SDS011;38366;53.176;6.540;2022-09-12T01:13:36;17.75;;;15.30;;
52450;SDS011;38366;53.176;6.540;2022-09-12T01:16:02;17.10;;;15.02;;
52450;SDS011;38366;53.176;6.540;2022-09-12T01:18:32;16.83;;;14.73;;
52450;SDS011;38366;53.176;6.540;2022-09-12T01:26:38;18.20;;;14.75;;
52450;SDS011;38366;53.176;6.540;2022-09-12T01:32:12;17.65;;;15.77;;
52450;SDS011;38366;53.176;6.540;2022-09-12T01:35:17;19.60;;;16.35;;
52450;SDS011;38366;53.176;6.540;2022-09-12T01:42:53;17.02;;;15.23;;
52450;SDS011;38366;53.176;6.540;2022-09-12T01:48:25;18.02;;;16.23;;
52450;SDS011;38366;53.176;6.540;2022-09-12T01:51:06;18.40;;;16.20;;
52450;SDS011;38366;53.176;6.540;2022-09-12T01:53:37;18.73;;;16.73;;
52450;SDS011;38366;53.176;6.540;2022-09-12T01:58:46;19.80;;;17.13;;
52450;SDS011;38366;53.176;6.540;2022-09-12T02:01:27;20.05;;;16.35;;
52450;SDS011;38366;53.176;6.540;2022-09-12T02:03:59;20.83;;;17.08;;
52450;SDS011;38366;53.176;6.540;2022-09-12T02:06:41;18.75;;;16.75;;
52450;SDS011;38366;53.176;6.540;2022-09-12T02:09:53;21.33;;;17.45;;
52450;SDS011;38366;53.176;6.540;2022-09-12T02:12:28;18.63;;;16.65;;
52450;SDS011;38366;53.176;6.540;2022-09-12T02:15:03;17.38;;;15.52;;
52450;SDS011;38366;53.176;6.540;2022-09-12T02:17:33;18.85;;;16.73;;
52450;SDS011;38366;53.176;6.540;2022-09-12T02:20:26;19.00;;;16.73;;
52450;SDS011;38366;53.176;6.540;2022-09-12T02:22:55;21.85;;;17.73;;
52450;SDS011;38366;53.176;6.540;2022-09-12T02:25:22;18.50;;;16.65;;
52450;SDS011;38366;53.176;6.540;2022-09-12T02:30:25;19.08;;;16.45;;
52450;SDS011;38366;53.176;6.540;2022-09-12T02:32:59;18.85;;;16.45;;
52450;SDS011;38366;53.176;6.540;2022-09-12T02:38:12;18.98;;;16.98;;
52450;SDS011;38366;53.176;6.540;2022-09-12T02:40:39;23.55;;;17.45;;
52450;SDS011;38366;53.176;6.540;2022-09-12T02:45:31;21.38;;;18.13;;
52450;SDS011;38366;53.176;6.540;2022-09-12T02:48:18;20.25;;;16.98;;
52450;SDS011;38366;53.176;6.540;2022-09-12T02:50:54;19.42;;;17.33;;
52450;SDS011;38366;53.176;6.540;2022-09-12T02:53:20;19.13;;;16.73;;
52450;SDS011;38366;53.176;6.540;2022-09-12T02:55:46;20.65;;;17.42;;
52450;SDS011;38366;53.176;6.540;2022-09-12T02:58:16;19.48;;;16.70;;
52450;SDS011;38366;53.176;6.540;2022-09-12T03:06:18;18.98;;;16.50;;
52450;SDS011;38366;53.176;6.540;2022-09-12T03:08:57;20.77;;;16.65;;
52450;SDS011;38366;53.176;6.540;2022-09-12T03:23:13;22.08;;;17.85;;
52450;SDS011;38366;53.176;6.540;2022-09-12T03:25:42;24.38;;;18.63;;
52450;SDS011;38366;53.176;6.540;2022-09-12T03:28:14;21.80;;;16.67;;
52450;SDS011;38366;53.176;6.540;2022-09-12T03:30:45;22.65;;;18.20;;
52450;SDS011;38366;53.176;6.540;2022-09-12T03:33:16;23.27;;;18.20;;
52450;SDS011;38366;53.176;6.540;2022-09-12T03:35:44;22.55;;;17.27;;
52450;SDS011;38366;53.176;6.540;2022-09-12T03:38:10;19.10;;;15.57;;
52450;SDS011;38366;53.176;6.540;2022-09-12T03:40:37;20.58;;;16.23;;
52450;SDS011;38366;53.176;6.540;2022-09-12T03:43:03;20.58;;;15.18;;
52450;SDS011;38366;53.176;6.540;2022-09-12T03:45:31;15.60;;;13.70;;
52450;SDS011;38366;53.176;6.540;2022-09-12T03:47:57;15.70;;;14.00;;
52450;SDS011;38366;53.176;6.540;2022-09-12T03:50:23;19.58;;;15.23;;
52450;SDS011;38366;53.176;6.540;2022-09-12T03:52:48;14.15;;;12.52;;
52450;SDS011;38366;53.176;6.540;2022-09-12T03:55:14;17.07;;;13.97;;
52450;SDS011;38366;53.176;6.540;2022-09-12T03:57:40;15.35;;;13.32;;
52450;SDS011;38366;53.176;6.540;2022-09-12T04:00:06;17.23;;;13.98;;
52450;SDS011;38366;53.176;6.540;2022-09-12T04:02:35;17.58;;;15.02;;
52450;SDS011;38366;53.176;6.540;2022-09-12T04:05:01;21.48;;;16.67;;
52450;SDS011;38366;53.176;6.540;2022-09-12T04:07:27;23.58;;;16.55;;
52450;SDS011;38366;53.176;6.540;2022-09-12T04:09:52;20.83;;;16.30;;
52450;SDS011;38366;53.176;6.540;2022-09-12T04:12:19;26.08;;;19.42;;
52450;SDS011;38366;53.176;6.540;2022-09-12T04:14:45;26.73;;;20.08;;
52450;SDS011;38366;53.176;6.540;2022-09-12T04:17:10;23.63;;;17.08;;
52450;SDS011;38366;53.176;6.540;2022-09-12T04:19:36;27.08;;;18.65;;
52450;SDS011;38366;53.176;6.540;2022-09-12T04:22:02;27.10;;;19.27;;
52450;SDS011;38366;53.176;6.540;2022-09-12T04:24:30;26.83;;;20.60;;
52450;SDS011;38366;53.176;6.540;2022-09-12T04:26:56;26.90;;;19.97;;
52450;SDS011;38366;53.176;6.540;2022-09-12T04:29:22;26.50;;;19.55;;
52450;SDS011;38366;53.176;6.540;2022-09-12T04:31:48;26.70;;;19.50;;
52450;SDS011;38366;53.176;6.540;2022-09-12T04:34:13;24.45;;;19.15;;
52450;SDS011;38366;53.176;6.540;2022-09-12T04:36:39;28.70;;;19.98;;
52450;SDS011;38366;53.176;6.540;2022-09-12T04:39:05;25.50;;;19.10;;
52450;SDS011;38366;53.176;6.540;2022-09-12T04:41:35;27.40;;;19.80;;
52450;SDS011;38366;53.176;6.540;2022-09-12T04:44:04;31.05;;;21.70;;
52450;SDS011;38366;53.176;6.540;2022-09-12T04:46:41;28.13;;;21.30;;
52450;SDS011;38366;53.176;6.540;2022-09-12T04:49:09;28.55;;;21.10;;
52450;SDS011;38366;53.176;6.540;2022-09-12T04:51:36;29.20;;;21.10;;
52450;SDS011;38366;53.176;6.540;2022-09-12T04:54:04;29.40;;;21.02;;
52450;SDS011;38366;53.176;6.540;2022-09-12T04:56:36;30.05;;;20.73;;
52450;SDS011;38366;53.176;6.540;2022-09-12T04:59:03;29.60;;;21.27;;
52450;SDS011;38366;53.176;6.540;2022-09-12T05:03:56;26.65;;;20.90;;
52450;SDS011;38366;53.176;6.540;2022-09-12T05:06:24;30.75;;;21.83;;
52450;SDS011;38366;53.176;6.540;2022-09-12T05:08:52;31.10;;;22.13;;
52450;SDS011;38366;53.176;6.540;2022-09-12T05:11:19;33.78;;;22.48;;
52450;SDS011;38366;53.176;6.540;2022-09-12T05:13:46;34.28;;;22.00;;
52450;SDS011;38366;53.176;6.540;2022-09-12T05:16:12;28.85;;;21.15;;
52450;SDS011;38366;53.176;6.540;2022-09-12T05:18:39;31.38;;;23.02;;
52450;SDS011;38366;53.176;6.540;2022-09-12T05:21:07;31.85;;;23.33;;
52450;SDS011;38366;53.176;6.540;2022-09-12T05:23:35;31.33;;;23.77;;
52450;SDS011;38366;53.176;6.540;2022-09-12T05:26:01;31.30;;;23.35;;
52450;SDS011;38366;53.176;6.540;2022-09-12T05:28:29;30.38;;;21.98;;
52450;SDS011;38366;53.176;6.540;2022-09-12T05:31:04;29.83;;;21.70;;
52450;SDS011;38366;53.176;6.540;2022-09-12T05:33:30;27.75;;;21.00;;
52450;SDS011;38366;53.176;6.540;2022-09-12T05:35:56;29.90;;;22.90;;
52450;SDS011;38366;53.176;6.540;2022-09-12T05:38:22;30.08;;;21.80;;
52450;SDS011;38366;53.176;6.540;2022-09-12T05:40:49;32.08;;;23.52;;
52450;SDS011;38366;53.176;6.540;2022-09-12T05:45:41;29.55;;;20.65;;
52450;SDS011;38366;53.176;6.540;2022-09-12T05:48:07;31.00;;;20.92;;
52450;SDS011;38366;53.176;6.540;2022-09-12T05:50:32;27.58;;;20.67;;
52450;SDS011;38366;53.176;6.540;2022-09-12T05:52:58;29.48;;;21.52;;
52450;SDS011;38366;53.176;6.540;2022-09-12T05:55:24;30.20;;;21.30;;
52450;SDS011;38366;53.176;6.540;2022-09-12T05:57:50;30.65;;;21.45;;
52450;SDS011;38366;53.176;6.540;2022-09-12T06:00:16;29.98;;;21.45;;
52450;SDS011;38366;53.176;6.540;2022-09-12T06:02:43;31.45;;;21.90;;
52450;SDS011;38366;53.176;6.540;2022-09-12T06:05:09;31.92;;;22.27;;
52450;SDS011;38366;53.176;6.540;2022-09-12T06:07:34;29.95;;;21.98;;
52450;SDS011;38366;53.176;6.540;2022-09-12T06:10:01;31.27;;;22.38;;
52450;SDS011;38366;53.176;6.540;2022-09-12T06:12:27;29.92;;;22.08;;
52450;SDS011;38366;53.176;6.540;2022-09-12T06:14:54;30.67;;;22.50;;
52450;SDS011;38366;53.176;6.540;2022-09-12T06:17:20;29.67;;;21.92;;
52450;SDS011;38366;53.176;6.540;2022-09-12T06:19:46;30.95;;;22.55;;
52450;SDS011;38366;53.176;6.540;2022-09-12T06:22:15;31.90;;;22.90;;
52450;SDS011;38366;53.176;6.540;2022-09-12T06:24:42;33.25;;;23.25;;
52450;SDS011;38366;53.176;6.540;2022-09-12T06:27:08;33.22;;;23.63;;
52450;SDS011;38366;53.176;6.540;2022-09-12T06:29:34;33.03;;;23.90;;
52450;SDS011;38366;53.176;6.540;2022-09-12T06:31:59;32.83;;;24.17;;
52450;SDS011;38366;53.176;6.540;2022-09-12T06:34:25;34.88;;;24.02;;
52450;SDS011;38366;53.176;6.540;2022-09-12T06:36:51;33.25;;;23.42;;
52450;SDS011;38366;53.176;6.540;2022-09-12T06:39:18;34.60;;;23.92;;
52450;SDS011;38366;53.176;6.540;2022-09-12T06:41:46;33.47;;;24.00;;
52450;SDS011;38366;53.176;6.540;2022-09-12T06:44:16;32.55;;;22.67;;
52450;SDS011;38366;53.176;6.540;2022-09-12T06:46:46;34.45;;;23.48;;
52450;SDS011;38366;53.176;6.540;2022-09-12T06:49:12;32.47;;;23.38;;
52450;SDS011;38366;53.176;6.540;2022-09-12T06:51:38;33.25;;;23.67;;
52450;SDS011;38366;53.176;6.540;2022-09-12T06:54:06;34.60;;;24.73;;
52450;SDS011;38366;53.176;6.540;2022-09-12T06:56:32;34.83;;;24.30;;
52450;SDS011;38366;53.176;6.540;2022-09-12T06:58:58;34.88;;;25.52;;
52450;SDS011;38366;53.176;6.540;2022-09-12T07:01:25;37.08;;;25.33;;
52450;SDS011;38366;53.176;6.540;2022-09-12T07:03:53;39.63;;;25.45;;
52450;SDS011;38366;53.176;6.540;2022-09-12T07:06:25;36.30;;;25.40;;
52450;SDS011;38366;53.176;6.540;2022-09-12T07:08:56;36.75;;;25.90;;
52450;SDS011;38366;53.176;6.540;2022-09-12T07:11:24;40.10;;;26.23;;
52450;SDS011;38366;53.176;6.540;2022-09-12T07:13:52;38.30;;;26.35;;
52450;SDS011;38366;53.176;6.540;2022-09-12T07:16:19;42.08;;;28.27;;
52450;SDS011;38366;53.176;6.540;2022-09-12T07:18:48;42.63;;;28.75;;
52450;SDS011;38366;53.176;6.540;2022-09-12T07:21:18;41.55;;;27.40;;
52450;SDS011;38366;53.176;6.540;2022-09-12T07:23:44;43.50;;;29.92;;
52450;SDS011;38366;53.176;6.540;2022-09-12T07:26:11;44.85;;;29.20;;
52450;SDS011;38366;53.176;6.540;2022-09-12T07:28:38;42.70;;;28.38;;
52450;SDS011;38366;53.176;6.540;2022-09-12T07:31:14;41.65;;;27.95;;
52450;SDS011;38366;53.176;6.540;2022-09-12T07:33:43;40.88;;;27.77;;
52450;SDS011;38366;53.176;6.540;2022-09-12T07:36:09;43.45;;;28.95;;
52450;SDS011;38366;53.176;6.540;2022-09-12T07:38:40;42.35;;;28.48;;
52450;SDS011;38366;53.176;6.540;2022-09-12T07:41:19;41.25;;;28.45;;
52450;SDS011;38366;53.176;6.540;2022-09-12T07:43:47;41.67;;;28.50;;
52450;SDS011;38366;53.176;6.540;2022-09-12T07:46:17;44.00;;;29.10;;
52450;SDS011;38366;53.176;6.540;2022-09-12T07:48:43;44.28;;;28.98;;
52450;SDS011;38366;53.176;6.540;2022-09-12T07:51:13;43.38;;;29.80;;
52450;SDS011;38366;53.176;6.540;2022-09-12T07:53:39;44.28;;;29.58;;
52450;SDS011;38366;53.176;6.540;2022-09-12T07:56:08;42.53;;;28.85;;
52450;SDS011;38366;53.176;6.540;2022-09-12T07:58:34;43.08;;;29.50;;
52450;SDS011;38366;53.176;6.540;2022-09-12T08:01:11;44.03;;;29.95;;
52450;SDS011;38366;53.176;6.540;2022-09-12T08:03:42;45.20;;;30.27;;
52450;SDS011;38366;53.176;6.540;2022-09-12T08:06:11;45.83;;;30.25;;
52450;SDS011;38366;53.176;6.540;2022-09-12T08:08:38;42.97;;;29.30;;
52450;SDS011;38366;53.176;6.540;2022-09-12T08:11:08;44.17;;;29.00;;
52450;SDS011;38366;53.176;6.540;2022-09-12T08:13:36;44.05;;;29.15;;
52450;SDS011;38366;53.176;6.540;2022-09-12T08:16:04;39.33;;;28.27;;
52450;SDS011;38366;53.176;6.540;2022-09-12T08:18:37;41.15;;;28.33;;
52450;SDS011;38366;53.176;6.540;2022-09-12T08:21:04;41.67;;;27.73;;
52450;SDS011;38366;53.176;6.540;2022-09-12T08:23:31;42.95;;;28.02;;
52450;SDS011;38366;53.176;6.540;2022-09-12T08:25:58;42.63;;;28.38;;
52450;SDS011;38366;53.176;6.540;2022-09-12T08:28:27;39.35;;;27.02;;
52450;SDS011;38366;53.176;6.540;2022-09-12T08:30:53;41.00;;;28.23;;
52450;SDS011;38366;53.176;6.540;2022-09-12T08:33:24;40.00;;;27.63;;
52450;SDS011;38366;53.176;6.540;2022-09-12T08:35:51;41.22;;;27.20;;
52450;SDS011;38366;53.176;6.540;2022-09-12T08:38:17;41.75;;;27.95;;
52450;SDS011;38366;53.176;6.540;2022-09-12T08:40:49;39.22;;;27.35;;
52450;SDS011;38366;53.176;6.540;2022-09-12T08:43:31;38.92;;;27.20;;
52450;SDS011;38366;53.176;6.540;2022-09-12T08:46:40;40.53;;;27.20;;
52450;SDS011;38366;53.176;6.540;2022-09-12T08:52:17;40.03;;;26.65;;
52450;SDS011;38366;53.176;6.540;2022-09-12T08:54:51;38.10;;;26.98;;
52450;SDS011;38366;53.176;6.540;2022-09-12T08:57:18;39.05;;;25.92;;
52450;SDS011;38366;53.176;6.540;2022-09-12T08:59:44;38.05;;;26.27;;
52450;SDS011;38366;53.176;6.540;2022-09-12T09:05:28;35.83;;;24.58;;
52450;SDS011;38366;53.176;6.540;2022-09-12T09:17:22;32.13;;;23.13;;
52450;SDS011;38366;53.176;6.540;2022-09-12T09:20:18;32.08;;;23.52;;
52450;SDS011;38366;53.176;6.540;2022-09-12T09:25:28;29.60;;;21.55;;
52450;SDS011;38366;53.176;6.540;2022-09-12T09:28:21;29.25;;;21.70;;
52450;SDS011;38366;53.176;6.540;2022-09-12T09:30:50;31.60;;;21.90;;
52450;SDS011;38366;53.176;6.540;2022-09-12T09:33:25;32.00;;;22.05;;
52450;SDS011;38366;53.176;6.540;2022-09-12T09:41:18;29.85;;;20.95;;
52450;SDS011;38366;53.176;6.540;2022-09-12T09:44:17;28.90;;;20.25;;
52450;SDS011;38366;53.176;6.540;2022-09-12T09:46:43;32.72;;;21.60;;
52450;SDS011;38366;53.176;6.540;2022-09-12T09:49:10;30.33;;;20.33;;
52450;SDS011;38366;53.176;6.540;2022-09-12T09:51:39;28.73;;;20.05;;
52450;SDS011;38366;53.176;6.540;2022-09-12T09:54:12;29.58;;;20.05;;
52450;SDS011;38366;53.176;6.540;2022-09-12T09:56:45;29.73;;;20.30;;
52450;SDS011;38366;53.176;6.540;2022-09-12T09:59:14;31.77;;;19.85;;
52450;SDS011;38366;53.176;6.540;2022-09-12T10:01:43;29.77;;;19.33;;
52450;SDS011;38366;53.176;6.540;2022-09-12T10:04:26;28.42;;;19.67;;
52450;SDS011;38366;53.176;6.540;2022-09-12T10:06:58;31.73;;;20.63;;
52450;SDS011;38366;53.176;6.540;2022-09-12T10:09:26;29.05;;;19.90;;
52450;SDS011;38366;53.176;6.540;2022-09-12T10:11:54;31.92;;;21.17;;
52450;SDS011;38366;53.176;6.540;2022-09-12T10:14:42;30.05;;;20.25;;
52450;SDS011;38366;53.176;6.540;2022-09-12T10:19:58;28.75;;;19.63;;
52450;SDS011;38366;53.176;6.540;2022-09-12T10:22:27;29.02;;;19.77;;
52450;SDS011;38366;53.176;6.540;2022-09-12T10:24:54;27.83;;;18.02;;
52450;SDS011;38366;53.176;6.540;2022-09-12T10:27:24;28.35;;;17.70;;
52450;SDS011;38366;53.176;6.540;2022-09-12T10:30:00;22.88;;;16.35;;
52450;SDS011;38366;53.176;6.540;2022-09-12T10:32:37;26.40;;;17.63;;
52450;SDS011;38366;53.176;6.540;2022-09-12T10:35:51;23.80;;;17.20;;
52450;SDS011;38366;53.176;6.540;2022-09-12T10:37:58;23.58;;;15.85;;
52450;SDS011;38366;53.176;6.540;2022-09-12T10:40:32;21.95;;;15.40;;
52450;SDS011;38366;53.176;6.540;2022-09-12T10:43:17;22.98;;;14.00;;
52450;SDS011;38366;53.176;6.540;2022-09-12T10:45:59;20.35;;;14.73;;
52450;SDS011;38366;53.176;6.540;2022-09-12T10:48:40;23.20;;;16.52;;
52450;SDS011;38366;53.176;6.540;2022-09-12T10:51:13;21.92;;;15.10;;
52450;SDS011;38366;53.176;6.540;2022-09-12T10:53:48;25.60;;;16.92;;
52450;SDS011;38366;53.176;6.540;2022-09-12T10:56:17;25.67;;;16.48;;
52450;SDS011;38366;53.176;6.540;2022-09-12T11:13:39;21.45;;;14.70;;
52450;SDS011;38366;53.176;6.540;2022-09-12T11:16:18;20.90;;;14.00;;
52450;SDS011;38366;53.176;6.540;2022-09-12T11:19:30;19.77;;;12.70;;
52450;SDS011;38366;53.176;6.540;2022-09-12T11:22:23;18.60;;;12.48;;
52450;SDS011;38366;53.176;6.540;2022-09-12T11:25:03;14.35;;;10.48;;
52450;SDS011;38366;53.176;6.540;2022-09-12T11:30:32;12.82;;;9.80;;
52450;SDS011;38366;53.176;6.540;2022-09-12T11:33:31;15.88;;;10.90;;
52450;SDS011;38366;53.176;6.540;2022-09-12T11:36:06;13.60;;;8.60;;
52450;SDS011;38366;53.176;6.540;2022-09-12T11:38:51;11.93;;;6.95;;
52450;SDS011;38366;53.176;6.540;2022-09-12T11:41:31;10.88;;;7.60;;
52450;SDS011;38366;53.176;6.540;2022-09-12T11:47:12;9.68;;;7.13;;
52450;SDS011;38366;53.176;6.540;2022-09-12T11:57:27;10.57;;;7.80;;
52450;SDS011;38366;53.176;6.540;2022-09-12T12:02:41;10.80;;;7.80;;
52450;SDS011;38366;53.176;6.540;2022-09-12T12:05:15;10.70;;;8.60;;
52450;SDS011;38366;53.176;6.540;2022-09-12T12:07:50;10.00;;;7.70;;
52450;SDS011;38366;53.176;6.540;2022-09-12T12:10:30;11.65;;;8.25;;
52450;SDS011;38366;53.176;6.540;2022-09-12T12:13:05;9.85;;;6.72;;
52450;SDS011;38366;53.176;6.540;2022-09-12T12:16:01;9.32;;;5.85;;
52450;SDS011;38366;53.176;6.540;2022-09-12T12:18:37;8.68;;;6.05;;
52450;SDS011;38366;53.176;6.540;2022-09-12T12:21:20;7.15;;;5.63;;
52450;SDS011;38366;53.176;6.540;2022-09-12T12:24:10;8.23;;;5.40;;
52450;SDS011;38366;53.176;6.540;2022-09-12T12:36:58;5.45;;;3.50;;
52450;SDS011;38366;53.176;6.540;2022-09-12T12:44:58;7.00;;;4.00;;
52450;SDS011;38366;53.176;6.540;2022-09-12T12:47:30;5.53;;;3.60;;
52450;SDS011;38366;53.176;6.540;2022-09-12T12:52:30;8.43;;;3.90;;
52450;SDS011;38366;53.176;6.540;2022-09-12T12:55:12;5.03;;;3.85;;
52450;SDS011;38366;53.176;6.540;2022-09-12T12:57:47;6.47;;;4.18;;
52450;SDS011;38366;53.176;6.540;2022-09-12T13:05:38;5.45;;;4.30;;
52450;SDS011;38366;53.176;6.540;2022-09-12T13:08:07;8.55;;;5.00;;
52450;SDS011;38366;53.176;6.540;2022-09-12T13:10:50;7.95;;;5.90;;
52450;SDS011;38366;53.176;6.540;2022-09-12T13:13:33;5.63;;;5.03;;
52450;SDS011;38366;53.176;6.540;2022-09-12T13:16:00;8.52;;;4.85;;
52450;SDS011;38366;53.176;6.540;2022-09-12T13:18:27;8.68;;;5.88;;
52450;SDS011;38366;53.176;6.540;2022-09-12T13:21:15;9.00;;;6.43;;
52450;SDS011;38366;53.176;6.540;2022-09-12T13:23:43;7.15;;;5.30;;
52450;SDS011;38366;53.176;6.540;2022-09-12T13:26:22;7.70;;;4.88;;
52450;SDS011;38366;53.176;6.540;2022-09-12T13:29:07;9.75;;;6.00;;
52450;SDS011;38366;53.176;6.540;2022-09-12T13:31:33;7.40;;;5.47;;
52450;SDS011;38366;53.176;6.540;2022-09-12T13:34:00;7.53;;;5.57;;
52450;SDS011;38366;53.176;6.540;2022-09-12T13:39:20;7.65;;;5.50;;
52450;SDS011;38366;53.176;6.540;2022-09-12T13:44:36;6.28;;;5.10;;
52450;SDS011;38366;53.176;6.540;2022-09-12T13:47:07;8.55;;;5.03;;
52450;SDS011;38366;53.176;6.540;2022-09-12T13:49:45;8.25;;;5.25;;
52450;SDS011;38366;53.176;6.540;2022-09-12T13:52:19;6.45;;;5.70;;
52450;SDS011;38366;53.176;6.540;2022-09-12T13:54:50;6.65;;;5.10;;
52450;SDS011;38366;53.176;6.540;2022-09-12T13:57:26;9.02;;;5.93;;
52450;SDS011;38366;53.176;6.540;2022-09-12T13:59:57;6.85;;;5.28;;
52450;SDS011;38366;53.176;6.540;2022-09-12T14:02:25;6.32;;;4.65;;
52450;SDS011;38366;53.176;6.540;2022-09-12T14:04:53;8.30;;;4.97;;
52450;SDS011;38366;53.176;6.540;2022-09-12T14:07:33;7.20;;;5.47;;
52450;SDS011;38366;53.176;6.540;2022-09-12T14:10:04;8.85;;;5.03;;
52450;SDS011;38366;53.176;6.540;2022-09-12T14:12:37;5.72;;;4.47;;
52450;SDS011;38366;53.176;6.540;2022-09-12T14:15:17;6.10;;;4.40;;
52450;SDS011;38366;53.176;6.540;2022-09-12T14:17:49;6.55;;;4.13;;
52450;SDS011;38366;53.176;6.540;2022-09-12T14:20:17;6.60;;;4.45;;
52450;SDS011;38366;53.176;6.540;2022-09-12T14:22:44;5.72;;;4.30;;
52450;SDS011;38366;53.176;6.540;2022-09-12T14:25:15;5.88;;;4.30;;
52450;SDS011;38366;53.176;6.540;2022-09-12T14:27:44;7.22;;;5.35;;
52450;SDS011;38366;53.176;6.540;2022-09-12T14:38:39;5.38;;;4.72;;
52450;SDS011;38366;53.176;6.540;2022-09-12T14:41:07;6.50;;;4.95;;
52450;SDS011;38366;53.176;6.540;2022-09-12T14:43:38;7.28;;;5.05;;
52450;SDS011;38366;53.176;6.540;2022-09-12T14:46:17;6.70;;;5.40;;
52450;SDS011;38366;53.176;6.540;2022-09-12T14:48:52;7.18;;;5.60;;
52450;SDS011;38366;53.176;6.540;2022-09-12T14:51:31;6.78;;;5.50;;
52450;SDS011;38366;53.176;6.540;2022-09-12T14:54:01;7.68;;;5.90;;
52450;SDS011;38366;53.176;6.540;2022-09-12T14:56:37;7.72;;;5.95;;
52450;SDS011;38366;53.176;6.540;2022-09-12T14:59:25;8.35;;;5.32;;
52450;SDS011;38366;53.176;6.540;2022-09-12T15:12:47;9.85;;;7.50;;
52450;SDS011;38366;53.176;6.540;2022-09-12T15:15:17;8.63;;;6.65;;
52450;SDS011;38366;53.176;6.540;2022-09-12T15:17:44;7.85;;;6.50;;
52450;SDS011;38366;53.176;6.540;2022-09-12T15:20:10;8.88;;;7.00;;
52450;SDS011;38366;53.176;6.540;2022-09-12T15:22:37;8.98;;;7.25;;
52450;SDS011;38366;53.176;6.540;2022-09-12T15:25:04;8.13;;;6.78;;
52450;SDS011;38366;53.176;6.540;2022-09-12T15:27:31;10.50;;;6.80;;
52450;SDS011;38366;53.176;6.540;2022-09-12T15:29:57;9.93;;;7.95;;
52450;SDS011;38366;53.176;6.540;2022-09-12T15:32:27;10.05;;;7.38;;
52450;SDS011;38366;53.176;6.540;2022-09-12T15:34:54;9.60;;;7.70;;
52450;SDS011;38366;53.176;6.540;2022-09-12T15:37:21;9.35;;;7.40;;
52450;SDS011;38366;53.176;6.540;2022-09-12T15:39:48;12.30;;;7.57;;
52450;SDS011;38366;53.176;6.540;2022-09-12T15:42:15;9.95;;;8.27;;
52450;SDS011;38366;53.176;6.540;2022-09-12T15:44:42;9.48;;;7.95;;
52450;SDS011;38366;53.176;6.540;2022-09-12T15:47:11;10.85;;;7.82;;
52450;SDS011;38366;53.176;6.540;2022-09-12T15:49:38;10.23;;;7.50;;
52450;SDS011;38366;53.176;6.540;2022-09-12T15:52:05;8.10;;;6.82;;
52450;SDS011;38366;53.176;6.540;2022-09-12T15:54:31;8.75;;;6.75;;
52450;SDS011;38366;53.176;6.540;2022-09-12T15:56:57;8.23;;;6.18;;
52450;SDS011;38366;53.176;6.540;2022-09-12T16:01:49;6.63;;;5.50;;
52450;SDS011;38366;53.176;6.540;2022-09-12T16:06:45;7.75;;;5.28;;
52450;SDS011;38366;53.176;6.540;2022-09-12T16:11:36;6.43;;;5.10;;
52450;SDS011;38366;53.176;6.540;2022-09-12T16:16:28;6.53;;;4.68;;
52450;SDS011;38366;53.176;6.540;2022-09-12T16:21:20;6.32;;;4.05;;
52450;SDS011;38366;53.176;6.540;2022-09-12T16:26:11;4.40;;;4.00;;
52450;SDS011;38366;53.176;6.540;2022-09-12T16:31:06;5.65;;;3.70;;
52450;SDS011;38366;53.176;6.540;2022-09-12T16:33:35;4.82;;;3.20;;
52450;SDS011;38366;53.176;6.540;2022-09-12T16:36:02;4.57;;;3.65;;
52450;SDS011;38366;53.176;6.540;2022-09-12T16:38:30;4.35;;;3.70;;
52450;SDS011;38366;53.176;6.540;2022-09-12T16:43:25;6.50;;;4.00;;
52450;SDS011;38366;53.176;6.540;2022-09-12T16:48:24;5.88;;;3.97;;
52450;SDS011;38366;53.176;6.540;2022-09-12T16:53:22;6.40;;;3.35;;
52450;SDS011;38366;53.176;6.540;2022-09-12T16:55:49;6.90;;;3.50;;
52450;SDS011;38366;53.176;6.540;2022-09-12T16:58:15;6.20;;;3.28;;
52450;SDS011;38366;53.176;6.540;2022-09-12T17:03:06;4.50;;;3.72;;
52450;SDS011;38366;53.176;6.540;2022-09-12T17:05:33;4.00;;;3.35;;
52450;SDS011;38366;53.176;6.540;2022-09-12T17:10:24;4.03;;;3.13;;
52450;SDS011;38366;53.176;6.540;2022-09-12T17:12:51;7.97;;;3.33;;
52450;SDS011;38366;53.176;6.540;2022-09-12T17:17:42;3.75;;;3.08;;
52450;SDS011;38366;53.176;6.540;2022-09-12T17:22:33;4.25;;;3.55;;
52450;SDS011;38366;53.176;6.540;2022-09-12T17:24:59;3.20;;;2.90;;
52450;SDS011;38366;53.176;6.540;2022-09-12T17:27:25;5.22;;;3.50;;
52450;SDS011;38366;53.176;6.540;2022-09-12T17:32:16;5.40;;;3.47;;
52450;SDS011;38366;53.176;6.540;2022-09-12T17:34:42;4.43;;;3.58;;
52450;SDS011;38366;53.176;6.540;2022-09-12T17:39:33;3.83;;;3.28;;
52450;SDS011;38366;53.176;6.540;2022-09-12T17:44:25;6.28;;;3.78;;
52450;SDS011;38366;53.176;6.540;2022-09-12T17:46:54;4.72;;;3.25;;
52450;SDS011;38366;53.176;6.540;2022-09-12T17:51:46;5.45;;;4.05;;
52450;SDS011;38366;53.176;6.540;2022-09-12T17:54:13;4.40;;;3.58;;
52450;SDS011;38366;53.176;6.540;2022-09-12T17:56:40;4.25;;;3.53;;
52450;SDS011;38366;53.176;6.540;2022-09-12T17:59:09;6.10;;;3.22;;
52450;SDS011;38366;53.176;6.540;2022-09-12T18:01:39;6.90;;;3.45;;
52450;SDS011;38366;53.176;6.540;2022-09-12T18:04:24;3.83;;;3.38;;
52450;SDS011;38366;53.176;6.540;2022-09-12T18:06:51;5.28;;;3.58;;
52450;SDS011;38366;53.176;6.540;2022-09-12T18:11:47;5.97;;;4.10;;
52450;SDS011;38366;53.176;6.540;2022-09-12T18:14:13;5.78;;;4.60;;
52450;SDS011;38366;53.176;6.540;2022-09-12T18:19:05;5.43;;;3.35;;
52450;SDS011;38366;53.176;6.540;2022-09-12T18:21:31;4.85;;;3.60;;
52450;SDS011;38366;53.176;6.540;2022-09-12T18:23:57;3.45;;;3.13;;
52450;SDS011;38366;53.176;6.540;2022-09-12T18:26:24;4.97;;;2.80;;